Observations for LAWRENCE MUNICIPAL, MA (LWM)

KLWM 171854Z 27005KT 4SM RA FEW080 OVC100 23/20 A2983 RMK AO2 LTG DSNT S SLP100 P0003 T02330200 
KLWM 171825Z 21006KT 10SM -RA BKN100 23/20 A2983 RMK AO2 LTG DSNT ALQDS P0000 T02330200
KLWM 171757Z 21007KT 3SM VCTS -RA SCT041 BKN080 OVC100 23/20 A2983 RMK AO2 LTG DSNT ALQDS P0000 T02330200
KLWM 171754Z 22009KT 1 3/4SM VCTS RA BKN037 BKN055 OVC090 23/20 A2984 RMK AO2 LTG DSNT ALQDS RAB14 TSB08E52 SLP102 P0057 60057 T02330200 10344 20233 53004  
KLWM 171729Z 24006KT 1/2SM +TSRA BKN022 OVC036 23/21 A2984 RMK AO2 LTG DSNT ALQDS RAB14 TSB08 P0040 T02330206
KLWM 171738Z 25011G16KT 1SM TSRA BKN031 OVC090 23/21 A2984 RMK AO2 LTG DSNT ALQDS RAB14 TSB08 P0045 T02330206
KLWM 171714Z 29015G24KT 7SM -TSRA BKN038 OVC049 26/19 A2985 RMK AO2 LTG DSNT ALQDS RAB14 TSB08 PRESRR P0000 T02560194
KLWM 171722Z 29007G23KT 3/4SM +TSRA SCT026 OVC036 23/20 A2986 RMK AO2 LTG DSNT ALQDS RAB14 TSB08 P0019 T02330200
KLWM 171654Z 31008G19KT 10SM VCTS BKN040 BKN049 OVC075 29/19 A2980 RMK AO2 LTG DSNT ALQDS SLP089 T02890194  
KLWM 171554Z 20014G22KT 10SM FEW040 34/22 A2980 RMK AO2 LTG DSNT N AND NW SLP088 T03390222  
KLWM 171454Z 21009KT 10SM CLR 32/22 A2983 RMK AO2 SLP098 T03220222 56014
KLWM 171354Z 20008KT 10SM CLR 31/22 A2983 RMK AO2 SLP100 T03060222  
KLWM 171254Z 22008KT 10SM CLR 28/22 A2986 RMK AO2 SLP109 T02830217  
KLWM 171154Z 22009KT 10SM CLR 27/22 A2987 RMK AO2 SLP112 T02720217 10272 20244 55002
KLWM 171054Z 20007KT 9SM SCT009 25/21 A2987 RMK AO2 SLP112 T02500211
KLWM 171028Z AUTO 21006KT 8SM SCT009 24/21 A2988 RMK AO2 T02440211
KLWM 171042Z AUTO 20006KT 9SM BKN009 24/21 A2987 RMK AO2 T02440211
KLWM 170954Z AUTO 20006KT 8SM CLR 24/21 A2987 RMK AO2 SLP113 T02440211  
KLWM 170854Z AUTO 20007KT 9SM CLR 24/21 A2987 RMK AO2 SLP114 T02440206 56012
KLWM 170754Z AUTO 20006KT 10SM CLR 25/21 A2988 RMK AO2 SLP115 T02500206 
KLWM 170654Z AUTO 19004KT 10SM CLR 26/21 A2989 RMK AO2 SLP120 T02560211 
KLWM 170554Z AUTO 19003KT 10SM CLR 25/21 A2991 RMK AO2 SLP126 T02500211 10267 20244 58013   
KLWM 170454Z AUTO 22006KT 10SM BKN110 26/21 A2992 RMK AO2 SLP131 T02610211 403280200
KLWM 170354Z AUTO 20004KT 10SM CLR 25/21 A2994 RMK AO2 LTG DSNT W SLP135 T02500206  
KLWM 170254Z AUTO 00000KT 10SM CLR 25/20 A2995 RMK AO2 SLP139 T02500200 50003   
KLWM 170154Z 00000KT 10SM CLR 24/20 A2995 RMK AO2 SLP141 T02440200  
KLWM 170054Z 00000KT 10SM CLR 26/21 A2994 RMK AO2 SLP136 T02560206  
KLWM 162354Z 13003KT 10SM CLR 27/21 A2994 RMK AO2 LTG DSNT SW SLP136 T02670211 10328 20267 56003
KLWM 162254Z VRB04KT 10SM CLR 29/22 A2994 RMK AO2 SLP137 T02890217  
KLWM 162154Z 12007KT 10SM OVC100 29/21 A2994 RMK AO2 SLP138 T02890211   
KLWM 162054Z 15006KT 10SM CLR 30/22 A2995 RMK AO2 SLP140 T03000222 56014
KLWM 161954Z 08008KT 10SM FEW031 32/22 A2996 RMK AO2 LTG DSNT W SLP143 T03220217
KLWM 161854Z 09009KT 10SM SCT030 32/21 A2997 RMK AO2 SLP147 T03170211